地図

経路データ

SID SEASON NUMBER BASIN SUBBASIN NAME ISO_TIME NATURE LAT LON WMO_WIND WMO_PRES WMO_AGENCY TRACK_TYPE DIST2LAND LANDFALL IFLAG USA_AGENCY USA_ATCF_ID USA_LAT USA_LON USA_RECORD USA_STATUS USA_WIND USA_PRES USA_SSHS USA_R34_NE USA_R34_SE USA_R34_SW USA_R34_NW USA_R50_NE USA_R50_SE USA_R50_SW USA_R50_NW USA_R64_NE USA_R64_SE USA_R64_SW USA_R64_NW USA_POCI USA_ROCI USA_RMW USA_EYE TOKYO_LAT TOKYO_LON TOKYO_GRADE TOKYO_WIND TOKYO_PRES TOKYO_R50_DIR TOKYO_R50_LONG TOKYO_R50_SHORT TOKYO_R30_DIR TOKYO_R30_LONG TOKYO_R30_SHORT TOKYO_LAND CMA_LAT CMA_LON CMA_CAT CMA_WIND CMA_PRES HKO_LAT HKO_LON HKO_CAT HKO_WIND HKO_PRES NEWDELHI_LAT NEWDELHI_LON NEWDELHI_GRADE NEWDELHI_WIND NEWDELHI_PRES NEWDELHI_CI NEWDELHI_DP NEWDELHI_POCI REUNION_LAT REUNION_LON REUNION_TYPE REUNION_WIND REUNION_PRES REUNION_TNUM REUNION_CI REUNION_RMW REUNION_R34_NE REUNION_R34_SE REUNION_R34_SW REUNION_R34_NW REUNION_R50_NE REUNION_R50_SE REUNION_R50_SW REUNION_R50_NW REUNION_R64_NE REUNION_R64_SE REUNION_R64_SW REUNION_R64_NW BOM_LAT BOM_LON BOM_TYPE BOM_WIND BOM_PRES BOM_TNUM BOM_CI BOM_RMW BOM_R34_NE BOM_R34_SE BOM_R34_SW BOM_R34_NW BOM_R50_NE BOM_R50_SE BOM_R50_SW BOM_R50_NW BOM_R64_NE BOM_R64_SE BOM_R64_SW BOM_R64_NW BOM_ROCI BOM_POCI BOM_EYE BOM_POS_METHOD BOM_PRES_METHOD NADI_LAT NADI_LON NADI_CAT NADI_WIND NADI_PRES WELLINGTON_LAT WELLINGTON_LON WELLINGTON_WIND WELLINGTON_PRES DS824_LAT DS824_LON DS824_STAGE DS824_WIND DS824_PRES TD9636_LAT TD9636_LON TD9636_STAGE TD9636_WIND TD9636_PRES TD9635_LAT TD9635_LON TD9635_WIND TD9635_PRES TD9635_ROCI NEUMANN_LAT NEUMANN_LON NEUMANN_CLASS NEUMANN_WIND NEUMANN_PRES MLC_LAT MLC_LON MLC_CLASS MLC_WIND MLC_PRES USA_GUST BOM_GUST BOM_GUST_PER REUNION_GUST REUNION_GUST_PER USA_SEAHGT USA_SEARAD_NE USA_SEARAD_SE USA_SEARAD_SW USA_SEARAD_NW STORM_SPEED STORM_DIR
1917001S18141 1917 1 SP EA NOT_NAMED 1916-12-31 23:00:00 NR -17.7000 140.500 992 bom main 0 0 ______O_______ -1 -17.7000 140.500 992 16 128
1917001S18141 1917 1 SP EA NOT_NAMED 1917-01-01 00:00:00 NR -17.8642 140.725 main 0 0 ______P_______ -1 -17.8642 140.725 16 127
1917001S18141 1917 1 SP EA NOT_NAMED 1917-01-01 03:00:00 NR -18.3529 141.398 main 0 0 ______P_______ -1 -18.3529 141.398 16 127
1917001S18141 1917 1 SP EA NOT_NAMED 1917-01-01 06:00:00 NR -18.8304 142.063 main 0 0 ______P_______ -1 -18.8304 142.063 16 127
1917001S18141 1917 1 SP EA NOT_NAMED 1917-01-01 09:00:00 NR -19.2898 142.710 main 0 0 ______P_______ -1 -19.2898 142.710 15 127
1917001S18141 1917 1 SP EA NOT_NAMED 1917-01-01 12:00:00 NR -19.7243 143.329 main 0 0 ______P_______ -1 -19.7243 143.329 14 127
1917001S18141 1917 1 SP EA NOT_NAMED 1917-01-01 15:00:00 NR -20.1273 143.911 main 0 0 ______P_______ -1 -20.1273 143.911 13 126
1917001S18141 1917 1 SP EA NOT_NAMED 1917-01-01 18:00:00 NR -20.4925 144.444 main 0 0 ______P_______ -1 -20.4925 144.444 12 126
1917001S18141 1917 1 SP EA NOT_NAMED 1917-01-01 21:00:00 NR -20.8135 144.920 main 0 0 ______P_______ -1 -20.8135 144.920 10 126
1917001S18141 1917 1 SP EA NOT_NAMED 1917-01-01 23:00:00 NR -21.0000 145.200 995 bom main 0 0 ______O_______ -1 -21.0000 145.200 995 9 124
1917001S18141 1917 1 SP EA NOT_NAMED 1917-01-02 00:00:00 TS -21.0675 145.322 main 0 0 ______P__O____ -1 -21.0844 145.328 -21.0000 145.300 TC 40 995 7 122
1917001S18141 1917 1 SP EA NOT_NAMED 1917-01-02 03:00:00 TS -21.2449 145.618 main 0 0 ______P__P____ -1 -21.3043 145.665 -21.1260 145.524 TC 6 122
1917001S18141 1917 1 SP EA NOT_NAMED 1917-01-02 06:00:00 TS -21.3823 145.860 main 0 0 ______P__P____ -1 -21.4802 145.944 -21.2518 145.748 TC 5 121
1917001S18141 1917 1 SP EA NOT_NAMED 1917-01-02 09:00:00 TS -21.4984 146.074 main 0 0 ______P__P____ -1 -21.6196 146.176 -21.3773 145.972 TC 5 121
1917001S18141 1917 1 SP EA NOT_NAMED 1917-01-02 12:00:00 TS -21.6161 146.285 main 0 0 ______P__P____ -1 -21.7297 146.373 -21.5024 146.197 TC 4 120
1917001S18141 1917 1 SP EA NOT_NAMED 1917-01-02 15:00:00 TS -21.7226 146.485 main 0 0 ______P__P____ -1 -21.8179 146.548 -21.6273 146.422 TC 4 119
1917001S18141 1917 1 SP EA NOT_NAMED 1917-01-02 18:00:00 TS -21.8216 146.680 main 0 0 ______P__P____ -1 -21.8913 146.713 -21.7518 146.648 TC 4 119
1917001S18141 1917 1 SP EA NOT_NAMED 1917-01-02 21:00:00 TS -21.9223 146.878 main 0 0 ______P__P____ -1 -21.9570 146.880 -21.8761 146.874 TC 4 119
1917001S18141 1917 1 SP EA NOT_NAMED 1917-01-02 23:00:00 TS -21.9862 147.008 995 bom main 0 0 ______O__P____ -1 -22.0000 147.000 995 -21.9587 147.025 TC 4 118
1917001S18141 1917 1 SP EA NOT_NAMED 1917-01-03 00:00:00 TS -22.0176 147.071 main 0 0 ______P__O____ -1 -22.0220 147.063 -22.0000 147.100 TC 40 995 4 113
1917001S18141 1917 1 SP EA NOT_NAMED 1917-01-03 03:00:00 NR -22.0904 147.268 main 0 0 ______P_______ -1 -22.0904 147.268 TC 4 110
1917001S18141 1917 1 SP EA NOT_NAMED 1917-01-03 06:00:00 NR -22.1620 147.493 main 0 0 ______P_______ -1 -22.1620 147.493 TC 5 109
1917001S18141 1917 1 SP EA NOT_NAMED 1917-01-03 09:00:00 NR -22.2362 147.735 main 0 0 ______P_______ -1 -22.2362 147.735 TC 5 108
1917001S18141 1917 1 SP EA NOT_NAMED 1917-01-03 12:00:00 NR -22.3124 147.990 main 0 0 ______P_______ -1 -22.3124 147.990 TC 5 108
1917001S18141 1917 1 SP EA NOT_NAMED 1917-01-03 15:00:00 NR -22.3901 148.257 main 0 0 ______P_______ -1 -22.3901 148.257 TC 5 107
1917001S18141 1917 1 SP EA NOT_NAMED 1917-01-03 18:00:00 NR -22.4686 148.532 main 0 0 ______P_______ -1 -22.4686 148.532 TC 5 107
1917001S18141 1917 1 SP EA NOT_NAMED 1917-01-03 21:00:00 NR -22.5475 148.812 main 0 0 ______P_______ -1 -22.5475 148.812 TC 5 107
1917001S18141 1917 1 SP EA NOT_NAMED 1917-01-03 23:00:00 NR -22.6000 149.000 1000 bom main 0 ______O_______ -1 -22.6000 149.000 1000 TC 5 107

デジタル台風データ・検索

IBTrACS Databaseについて

本データベースは、米国NOAAが公開する1842年以降の世界の熱帯低気圧のベストトラックデータアーカイブInternational Best Track Archive for Climate Stewardship (IBTrACS)を、ウェブで閲覧しやすい形式に変換したものです。

最終更新日:2021-10-25